PWSweather.com
Personal Weather Stations
Station Observations
SUBOTICARS
SuboticaYU

SuboticaYU

Lat: 46.1296717, Lon: 19.641551

Elevation: 361

Station Type: Nexus

http://sumeteo.info

High Low Average
Temperature 38.3°F3.5°C 26.1°F-3.3°C 33.2°F0.7°C
Dew Point 24.2°F-4.3°C 14.4°F-9.8°C 20.4°F-6.4°C
Winds 15.0 mph 24.1 kmh Calm Calm 6.0 mph WNW9.7 kmh WNW
Wind Gusts 21.9 mph35.2 kmh 1.2 mph1.9 kmh 8.0 mph12.9 kmh
Humidity 68% 54% 59%
Pressure 29.66 in1004.4 mb 29.43 in996.6 mb -
Precipitation 0.00 in0.0 mm - -
Hour Temp Dew Point Humidity Winds Wind Gusts Pressure Precip Precip Rate Daily Precip Total
12:00 AM 34.5°F1.4°C 20.8°F-6.2°C 57% 6.9 mph NW11.1 kmh NW 8.1 mph13.0 kmh 29.43 in996.6 mb - 0.00 in0.0 mm 0.00 in0.0 mm
12:10 AM 34.3°F1.3°C 20.2°F-6.6°C 56% 5.8 mph NNW9.3 kmh NNW 9.2 mph14.8 kmh 29.43 in996.6 mb - 0.00 in0.0 mm 0.00 in0.0 mm
12:15 AM 33.8°F1.0°C 19.7°F-6.8°C 56% 4.6 mph WNW7.4 kmh WNW 6.9 mph11.1 kmh 29.43 in996.6 mb - 0.00 in0.0 mm 0.00 in0.0 mm
12:20 AM 33.6°F0.9°C 20.0°F-6.7°C 57% 4.6 mph WNW7.4 kmh WNW 4.6 mph7.4 kmh 29.43 in996.6 mb - 0.00 in0.0 mm 0.00 in0.0 mm
12:25 AM 33.8°F1.0°C 20.2°F-6.6°C 57% 10.4 mph NNW16.7 kmh NNW 10.4 mph16.7 kmh 29.43 in996.6 mb - 0.00 in0.0 mm 0.00 in0.0 mm
12:30 AM 33.7°F0.9°C 19.7°F-6.8°C 56% 8.1 mph W13.0 kmh W 8.1 mph13.0 kmh 29.43 in996.6 mb - 0.00 in0.0 mm 0.00 in0.0 mm
12:35 AM 33.5°F0.8°C 19.9°F-6.7°C 57% 6.9 mph NW11.1 kmh NW 8.1 mph13.0 kmh 29.43 in996.6 mb - 0.00 in0.0 mm 0.00 in0.0 mm
12:40 AM 33.6°F0.9°C 20.0°F-6.7°C 57% 4.6 mph WNW7.4 kmh WNW 8.1 mph13.0 kmh 29.43 in996.6 mb - 0.00 in0.0 mm 0.00 in0.0 mm
12:45 AM 33.4°F0.8°C 19.8°F-6.8°C 57% 6.9 mph NW11.1 kmh NW 8.1 mph13.0 kmh 29.44 in997.0 mb - 0.00 in0.0 mm 0.00 in0.0 mm
12:50 AM 33.8°F1.0°C 19.7°F-6.8°C 56% 6.9 mph WNW11.1 kmh WNW 10.4 mph16.7 kmh 29.44 in997.0 mb - 0.00 in0.0 mm 0.00 in0.0 mm
12:55 AM 33.8°F1.0°C 20.2°F-6.6°C 57% 9.2 mph NNW14.8 kmh NNW 11.5 mph18.5 kmh 29.44 in997.0 mb - 0.00 in0.0 mm 0.00 in0.0 mm
01:00 AM 33.8°F1.0°C 20.2°F-6.6°C 57% 12.7 mph WNW20.4 kmh WNW 12.7 mph20.4 kmh 29.45 in997.3 mb - 0.00 in0.0 mm 0.00 in0.0 mm
01:10 AM 33.2°F0.7°C 20.5°F-6.4°C 59% 11.5 mph NNW18.5 kmh NNW 11.5 mph18.5 kmh 29.45 in997.3 mb - 0.00 in0.0 mm 0.00 in0.0 mm
01:15 AM 32.9°F0.5°C 20.1°F-6.6°C 59% 10.4 mph NW16.7 kmh NW 11.5 mph18.5 kmh 29.45 in997.3 mb - 0.00 in0.0 mm 0.00 in0.0 mm
01:20 AM 32.4°F0.2°C 19.6°F-6.9°C 59% 15.0 mph NNW24.1 kmh NNW 21.9 mph35.2 kmh 29.45 in997.3 mb - 0.00 in0.0 mm 0.00 in0.0 mm
01:25 AM 32.4°F0.2°C 19.6°F-6.9°C 59% 10.4 mph NNW16.7 kmh NNW 11.5 mph18.5 kmh 29.45 in997.3 mb - 0.00 in0.0 mm 0.00 in0.0 mm
01:30 AM 32.1°F0.1°C 19.3°F-7.1°C 59% 12.7 mph NW20.4 kmh NW 13.8 mph22.2 kmh 29.46 in997.6 mb - 0.00 in0.0 mm 0.00 in0.0 mm
01:35 AM 31.9°F-0.1°C 19.2°F-7.1°C 59% 11.5 mph NNW18.5 kmh NNW 10.4 mph16.7 kmh 29.46 in997.6 mb - 0.00 in0.0 mm 0.00 in0.0 mm
01:40 AM 31.6°F-0.2°C 18.9°F-7.3°C 59% 13.8 mph NW22.2 kmh NW 13.8 mph22.2 kmh 29.46 in997.6 mb - 0.00 in0.0 mm 0.00 in0.0 mm
01:45 AM 31.6°F-0.2°C 18.5°F-7.5°C 58% 13.8 mph N22.2 kmh N 13.8 mph22.2 kmh 29.46 in997.6 mb - 0.00 in0.0 mm 0.00 in0.0 mm
01:50 AM 31.5°F-0.3°C 18.0°F-7.8°C 57% 15.0 mph N24.1 kmh N 12.7 mph20.4 kmh 29.46 in997.6 mb - 0.00 in0.0 mm 0.00 in0.0 mm
01:55 AM 31.3°F-0.4°C 17.8°F-7.9°C 57% 11.5 mph NW18.5 kmh NW 15.0 mph24.1 kmh 29.46 in997.6 mb - 0.00 in0.0 mm 0.00 in0.0 mm
02:00 AM 31.0°F-0.6°C 17.1°F-8.3°C 56% 9.2 mph NNW14.8 kmh NNW 13.8 mph22.2 kmh 29.50 in999.0 mb - 0.00 in0.0 mm 0.00 in0.0 mm
02:10 AM 30.9°F-0.6°C 17.0°F-8.3°C 56% 8.1 mph NNW13.0 kmh NNW 11.5 mph18.5 kmh 29.50 in999.0 mb - 0.00 in0.0 mm 0.00 in0.0 mm
02:15 AM 30.4°F-0.9°C 16.5°F-8.6°C 56% 12.7 mph NW20.4 kmh NW 11.5 mph18.5 kmh 29.50 in999.0 mb - 0.00 in0.0 mm 0.00 in0.0 mm
02:20 AM 30.2°F-1.0°C 16.4°F-8.7°C 56% 12.7 mph NW20.4 kmh NW 12.7 mph20.4 kmh 29.50 in999.0 mb - 0.00 in0.0 mm 0.00 in0.0 mm
02:25 AM 30.2°F-1.0°C 16.4°F-8.7°C 56% 8.1 mph NW13.0 kmh NW 9.2 mph14.8 kmh 29.50 in999.0 mb - 0.00 in0.0 mm 0.00 in0.0 mm
02:30 AM 30.1°F-1.1°C 16.3°F-8.7°C 56% 9.2 mph NNW14.8 kmh NNW 12.7 mph20.4 kmh 29.50 in999.0 mb - 0.00 in0.0 mm 0.00 in0.0 mm
02:35 AM 30.0°F-1.1°C 16.2°F-8.8°C 56% 9.2 mph NNW14.8 kmh NNW 11.5 mph18.5 kmh 29.50 in999.0 mb - 0.00 in0.0 mm 0.00 in0.0 mm
02:40 AM 29.8°F-1.2°C 16.0°F-8.9°C 56% 6.9 mph NW11.1 kmh NW 8.1 mph13.0 kmh 29.50 in999.0 mb - 0.00 in0.0 mm 0.00 in0.0 mm
02:45 AM 29.8°F-1.2°C 16.0°F-8.9°C 56% 10.4 mph NNW16.7 kmh NNW 11.5 mph18.5 kmh 29.51 in999.3 mb - 0.00 in0.0 mm 0.00 in0.0 mm
02:50 AM 29.8°F-1.2°C 15.6°F-9.1°C 55% 10.4 mph N16.7 kmh N 11.5 mph18.5 kmh 29.51 in999.3 mb - 0.00 in0.0 mm 0.00 in0.0 mm
02:55 AM 29.8°F-1.2°C 16.0°F-8.9°C 56% 8.1 mph NNW13.0 kmh NNW 10.4 mph16.7 kmh 29.51 in999.3 mb - 0.00 in0.0 mm 0.00 in0.0 mm
03:00 AM 29.6°F-1.3°C 15.8°F-9.0°C 56% 5.8 mph NNW9.3 kmh NNW 10.4 mph16.7 kmh 29.52 in999.7 mb - 0.00 in0.0 mm 0.00 in0.0 mm
03:10 AM 29.7°F-1.3°C 15.9°F-8.9°C 56% 10.4 mph NNW16.7 kmh NNW 12.7 mph20.4 kmh 29.52 in999.7 mb - 0.00 in0.0 mm 0.00 in0.0 mm
03:15 AM 29.5°F-1.4°C 15.7°F-9.1°C 56% 6.9 mph NNW11.1 kmh NNW 9.2 mph14.8 kmh 29.52 in999.7 mb - 0.00 in0.0 mm 0.00 in0.0 mm
03:20 AM 29.5°F-1.4°C 16.1°F-8.8°C 57% 8.1 mph NNW13.0 kmh NNW 10.4 mph16.7 kmh 29.52 in999.7 mb - 0.00 in0.0 mm 0.00 in0.0 mm
03:25 AM 29.3°F-1.5°C 15.9°F-8.9°C 57% 6.9 mph NNW11.1 kmh NNW 10.4 mph16.7 kmh 29.52 in999.7 mb - 0.00 in0.0 mm 0.00 in0.0 mm
03:30 AM 29.1°F-1.6°C 15.8°F-9.0°C 57% 8.1 mph NW13.0 kmh NW 8.1 mph13.0 kmh 29.53 in1000.0 mb - 0.00 in0.0 mm 0.00 in0.0 mm
03:35 AM 29.1°F-1.6°C 15.8°F-9.0°C 57% 8.1 mph NNW13.0 kmh NNW 8.1 mph13.0 kmh 29.53 in1000.0 mb - 0.00 in0.0 mm 0.00 in0.0 mm
03:40 AM 28.8°F-1.8°C 15.8°F-9.0°C 58% 8.1 mph NNW13.0 kmh NNW 12.7 mph20.4 kmh 29.53 in1000.0 mb - 0.00 in0.0 mm 0.00 in0.0 mm
03:45 AM 28.8°F-1.8°C 15.8°F-9.0°C 58% 8.1 mph NNW13.0 kmh NNW 8.1 mph13.0 kmh 29.53 in1000.0 mb - 0.00 in0.0 mm 0.00 in0.0 mm
03:50 AM 28.9°F-1.7°C 16.0°F-8.9°C 58% 6.9 mph NW11.1 kmh NW 8.1 mph13.0 kmh 29.53 in1000.0 mb - 0.00 in0.0 mm 0.00 in0.0 mm
03:55 AM 28.8°F-1.8°C 15.8°F-9.0°C 58% 9.2 mph NNW14.8 kmh NNW 9.2 mph14.8 kmh 29.53 in1000.0 mb - 0.00 in0.0 mm 0.00 in0.0 mm
04:00 AM 28.8°F-1.8°C 15.8°F-9.0°C 58% 8.1 mph NNW13.0 kmh NNW 9.2 mph14.8 kmh 29.54 in1000.3 mb - 0.00 in0.0 mm 0.00 in0.0 mm
04:10 AM 28.6°F-1.9°C 15.7°F-9.1°C 58% 5.8 mph NNW9.3 kmh NNW 8.1 mph13.0 kmh 29.54 in1000.3 mb - 0.00 in0.0 mm 0.00 in0.0 mm
04:15 AM 28.9°F-1.7°C 16.0°F-8.9°C 58% 11.5 mph NNW18.5 kmh NNW 13.8 mph22.2 kmh 29.54 in1000.3 mb - 0.00 in0.0 mm 0.00 in0.0 mm
04:20 AM 28.8°F-1.8°C 15.8°F-9.0°C 58% 10.4 mph NNW16.7 kmh NNW 11.5 mph18.5 kmh 29.54 in1000.3 mb - 0.00 in0.0 mm 0.00 in0.0 mm
04:25 AM 28.9°F-1.7°C 16.0°F-8.9°C 58% 9.2 mph NW14.8 kmh NW 11.5 mph18.5 kmh 29.54 in1000.3 mb - 0.00 in0.0 mm 0.00 in0.0 mm
04:30 AM 28.9°F-1.7°C 16.0°F-8.9°C 58% 8.1 mph NW13.0 kmh NW 9.2 mph14.8 kmh 29.54 in1000.3 mb - 0.00 in0.0 mm 0.00 in0.0 mm
04:35 AM 28.9°F-1.7°C 16.0°F-8.9°C 58% 9.2 mph NNW14.8 kmh NNW 11.5 mph18.5 kmh 29.54 in1000.3 mb - 0.00 in0.0 mm 0.00 in0.0 mm
04:40 AM 28.9°F-1.7°C 16.0°F-8.9°C 58% 8.1 mph NNW13.0 kmh NNW 9.2 mph14.8 kmh 29.54 in1000.3 mb - 0.00 in0.0 mm 0.00 in0.0 mm
04:45 AM 28.8°F-1.8°C 16.2°F-8.8°C 59% 9.2 mph NW14.8 kmh NW 9.2 mph14.8 kmh 29.54 in1000.3 mb - 0.00 in0.0 mm 0.00 in0.0 mm
04:50 AM 28.9°F-1.7°C 16.4°F-8.7°C 59% 8.1 mph NNW13.0 kmh NNW 10.4 mph16.7 kmh 29.54 in1000.3 mb - 0.00 in0.0 mm 0.00 in0.0 mm
04:55 AM 28.8°F-1.8°C 16.2°F-8.8°C 59% 8.1 mph NNW13.0 kmh NNW 11.5 mph18.5 kmh 29.54 in1000.3 mb - 0.00 in0.0 mm 0.00 in0.0 mm
05:00 AM 28.7°F-1.8°C 16.2°F-8.8°C 59% 8.1 mph NW13.0 kmh NW 9.2 mph14.8 kmh 29.55 in1000.7 mb - 0.00 in0.0 mm 0.00 in0.0 mm
05:10 AM 28.6°F-1.9°C 16.1°F-8.8°C 59% 8.1 mph NNW13.0 kmh NNW 11.5 mph18.5 kmh 29.55 in1000.7 mb - 0.00 in0.0 mm 0.00 in0.0 mm
05:15 AM 28.4°F-2.0°C 15.9°F-8.9°C 59% 5.8 mph NNW9.3 kmh NNW 10.4 mph16.7 kmh 29.57 in1001.4 mb - 0.00 in0.0 mm 0.00 in0.0 mm
05:20 AM 28.2°F-2.1°C 16.1°F-8.8°C 60% 8.1 mph NNW13.0 kmh NNW 10.4 mph16.7 kmh 29.57 in1001.4 mb - 0.00 in0.0 mm 0.00 in0.0 mm
05:25 AM 28.4°F-2.0°C 16.3°F-8.7°C 60% 6.9 mph WNW11.1 kmh WNW 10.4 mph16.7 kmh 29.57 in1001.4 mb - 0.00 in0.0 mm 0.00 in0.0 mm
05:30 AM 28.4°F-2.0°C 16.3°F-8.7°C 60% 9.2 mph NW14.8 kmh NW 6.9 mph11.1 kmh 29.56 in1001.0 mb - 0.00 in0.0 mm 0.00 in0.0 mm
05:35 AM 28.4°F-2.0°C 16.3°F-8.7°C 60% 6.9 mph NNW11.1 kmh NNW 5.8 mph9.3 kmh 29.56 in1001.0 mb - 0.00 in0.0 mm 0.00 in0.0 mm
05:40 AM 28.2°F-2.1°C 16.1°F-8.8°C 60% 6.9 mph NW11.1 kmh NW 9.2 mph14.8 kmh 29.56 in1001.0 mb - 0.00 in0.0 mm 0.00 in0.0 mm
05:45 AM 28.2°F-2.1°C 16.1°F-8.8°C 60% 8.1 mph NW13.0 kmh NW 9.2 mph14.8 kmh 29.57 in1001.4 mb - 0.00 in0.0 mm 0.00 in0.0 mm
05:50 AM 28.2°F-2.1°C 16.1°F-8.8°C 60% 5.8 mph NNW9.3 kmh NNW 6.9 mph11.1 kmh 29.57 in1001.4 mb - 0.00 in0.0 mm 0.00 in0.0 mm
05:55 AM 28.0°F-2.2°C 15.9°F-8.9°C 60% 6.9 mph NW11.1 kmh NW 6.9 mph11.1 kmh 29.57 in1001.4 mb - 0.00 in0.0 mm 0.00 in0.0 mm
06:00 AM 28.2°F-2.1°C 16.1°F-8.8°C 60% 8.1 mph WNW13.0 kmh WNW 10.4 mph16.7 kmh 29.57 in1001.4 mb - 0.00 in0.0 mm 0.00 in0.0 mm
06:10 AM 28.6°F-1.9°C 16.1°F-8.8°C 59% 6.9 mph NW11.1 kmh NW 8.1 mph13.0 kmh 29.57 in1001.4 mb - 0.00 in0.0 mm 0.00 in0.0 mm
06:15 AM 28.6°F-1.9°C 16.1°F-8.8°C 59% 9.2 mph NW14.8 kmh NW 13.8 mph22.2 kmh 29.57 in1001.4 mb - 0.00 in0.0 mm 0.00 in0.0 mm
06:20 AM 28.6°F-1.9°C 16.1°F-8.8°C 59% 5.8 mph NW9.3 kmh NW 4.6 mph7.4 kmh 29.57 in1001.4 mb - 0.00 in0.0 mm 0.00 in0.0 mm
06:25 AM 28.4°F-2.0°C 15.9°F-8.9°C 59% 8.1 mph NW13.0 kmh NW 11.5 mph18.5 kmh 29.57 in1001.4 mb - 0.00 in0.0 mm 0.00 in0.0 mm
06:30 AM 28.3°F-2.1°C 15.4°F-9.2°C 58% 6.9 mph NNW11.1 kmh NNW 8.1 mph13.0 kmh 29.57 in1001.4 mb - 0.00 in0.0 mm 0.00 in0.0 mm
06:35 AM 28.2°F-2.1°C 15.7°F-9.1°C 59% 5.8 mph NW9.3 kmh NW 9.2 mph14.8 kmh 29.57 in1001.4 mb - 0.00 in0.0 mm 0.00 in0.0 mm
06:40 AM 28.0°F-2.2°C 15.5°F-9.2°C 59% 4.6 mph NW7.4 kmh NW 6.9 mph11.1 kmh 29.57 in1001.4 mb - 0.00 in0.0 mm 0.00 in0.0 mm
06:45 AM 27.9°F-2.3°C 15.4°F-9.2°C 59% 4.6 mph NW7.4 kmh NW 3.5 mph5.6 kmh 29.58 in1001.7 mb - 0.00 in0.0 mm 0.00 in0.0 mm
06:50 AM 27.5°F-2.5°C 15.0°F-9.4°C 59% 2.3 mph NW3.7 kmh NW 3.5 mph5.6 kmh 29.58 in1001.7 mb - 0.00 in0.0 mm 0.00 in0.0 mm
06:55 AM 27.0°F-2.8°C 14.6°F-9.7°C 59% 2.3 mph WNW3.7 kmh WNW 3.5 mph5.6 kmh 29.58 in1001.7 mb - 0.00 in0.0 mm 0.00 in0.0 mm
07:00 AM 26.9°F-2.8°C 14.5°F-9.7°C 59% 2.3 mph WNW3.7 kmh WNW 2.3 mph3.7 kmh 29.58 in1001.7 mb - 0.00 in0.0 mm 0.00 in0.0 mm
07:10 AM 26.4°F-3.1°C 14.4°F-9.8°C 60% 2.3 mph WNW3.7 kmh WNW 3.5 mph5.6 kmh 29.58 in1001.7 mb - 0.00 in0.0 mm 0.00 in0.0 mm
07:15 AM 26.2°F-3.2°C 14.6°F-9.7°C 61% 3.5 mph NW5.6 kmh NW 4.6 mph7.4 kmh 29.57 in1001.4 mb - 0.00 in0.0 mm 0.00 in0.0 mm
07:20 AM 26.2°F-3.2°C 14.6°F-9.7°C 61% 3.5 mph WNW5.6 kmh WNW 3.5 mph5.6 kmh 29.57 in1001.4 mb - 0.00 in0.0 mm 0.00 in0.0 mm
07:25 AM 26.1°F-3.3°C 14.4°F-9.8°C 61% 4.6 mph WNW7.4 kmh WNW 4.6 mph7.4 kmh 29.57 in1001.4 mb - 0.00 in0.0 mm 0.00 in0.0 mm
07:30 AM 26.1°F-3.3°C 14.8°F-9.6°C 62% 5.8 mph NW9.3 kmh NW 8.1 mph13.0 kmh 29.58 in1001.7 mb - 0.00 in0.0 mm 0.00 in0.0 mm
07:35 AM 26.2°F-3.2°C 15.0°F-9.4°C 62% 5.8 mph WNW9.3 kmh WNW 8.1 mph13.0 kmh 29.58 in1001.7 mb - 0.00 in0.0 mm 0.00 in0.0 mm
07:40 AM 26.4°F-3.1°C 15.2°F-9.3°C 62% 4.6 mph NNW7.4 kmh NNW 4.6 mph7.4 kmh 29.58 in1001.7 mb - 0.00 in0.0 mm 0.00 in0.0 mm
07:45 AM 26.4°F-3.1°C 15.2°F-9.3°C 62% 4.6 mph NW7.4 kmh NW 5.8 mph9.3 kmh 29.59 in1002.0 mb - 0.00 in0.0 mm 0.00 in0.0 mm
07:50 AM 26.6°F-3.0°C 15.7°F-9.1°C 63% 4.6 mph NW7.4 kmh NW 5.8 mph9.3 kmh 29.59 in1002.0 mb - 0.00 in0.0 mm 0.00 in0.0 mm
07:55 AM 26.8°F-2.9°C 15.9°F-8.9°C 63% 4.6 mph NW7.4 kmh NW 4.6 mph7.4 kmh 29.59 in1002.0 mb - 0.00 in0.0 mm 0.00 in0.0 mm
08:00 AM 27.1°F-2.7°C 16.2°F-8.8°C 63% 4.6 mph WNW7.4 kmh WNW 4.6 mph7.4 kmh 29.60 in1002.4 mb - 0.00 in0.0 mm 0.00 in0.0 mm
08:10 AM 27.7°F-2.4°C 16.3°F-8.7°C 62% 4.6 mph WNW7.4 kmh WNW 6.9 mph11.1 kmh 29.60 in1002.4 mb - 0.00 in0.0 mm 0.00 in0.0 mm
08:15 AM 27.9°F-2.3°C 16.5°F-8.6°C 62% 3.5 mph WNW5.6 kmh WNW 4.6 mph7.4 kmh 29.60 in1002.4 mb - 0.00 in0.0 mm 0.00 in0.0 mm
08:20 AM 28.2°F-2.1°C 16.9°F-8.4°C 62% 3.5 mph WNW5.6 kmh WNW 4.6 mph7.4 kmh 29.60 in1002.4 mb - 0.00 in0.0 mm 0.00 in0.0 mm
08:25 AM 28.5°F-1.9°C 17.1°F-8.3°C 62% 2.3 mph NW3.7 kmh NW 5.8 mph9.3 kmh 29.60 in1002.4 mb - 0.00 in0.0 mm 0.00 in0.0 mm
08:30 AM 28.8°F-1.8°C 17.0°F-8.3°C 61% 3.5 mph WNW5.6 kmh WNW 5.8 mph9.3 kmh 29.61 in1002.7 mb - 0.00 in0.0 mm 0.00 in0.0 mm
08:35 AM 29.1°F-1.6°C 17.3°F-8.2°C 61% 3.5 mph WNW5.6 kmh WNW 3.5 mph5.6 kmh 29.61 in1002.7 mb - 0.00 in0.0 mm 0.00 in0.0 mm
08:40 AM 29.3°F-1.5°C 17.5°F-8.1°C 61% 3.5 mph NW5.6 kmh NW 3.5 mph5.6 kmh 29.61 in1002.7 mb - 0.00 in0.0 mm 0.00 in0.0 mm
08:45 AM 29.8°F-1.2°C 17.6°F-8.0°C 60% 3.5 mph NW5.6 kmh NW 4.6 mph7.4 kmh 29.62 in1003.0 mb - 0.00 in0.0 mm 0.00 in0.0 mm
08:50 AM 30.2°F-1.0°C 17.9°F-7.8°C 60% 5.8 mph WNW9.3 kmh WNW 6.9 mph11.1 kmh 29.62 in1003.0 mb - 0.00 in0.0 mm 0.00 in0.0 mm
08:55 AM 30.4°F-0.9°C 17.7°F-7.9°C 59% 4.6 mph W7.4 kmh W 5.8 mph9.3 kmh 29.62 in1003.0 mb - 0.00 in0.0 mm 0.00 in0.0 mm
09:00 AM 30.8°F-0.7°C 18.1°F-7.7°C 59% 3.5 mph WNW5.6 kmh WNW 6.9 mph11.1 kmh 29.61 in1002.7 mb - 0.00 in0.0 mm 0.00 in0.0 mm
09:10 AM 31.6°F-0.2°C 18.9°F-7.3°C 59% 3.5 mph WNW5.6 kmh WNW 6.9 mph11.1 kmh 29.61 in1002.7 mb - 0.00 in0.0 mm 0.00 in0.0 mm
09:15 AM 31.8°F-0.1°C 19.1°F-7.2°C 59% 3.5 mph WNW5.6 kmh WNW 3.5 mph5.6 kmh 29.63 in1003.4 mb - 0.00 in0.0 mm 0.00 in0.0 mm
09:20 AM 32.0°F0.0°C 19.3°F-7.1°C 59% 3.5 mph W5.6 kmh W 4.6 mph7.4 kmh 29.63 in1003.4 mb - 0.00 in0.0 mm 0.00 in0.0 mm
09:25 AM 32.4°F0.2°C 19.6°F-6.9°C 59% 2.3 mph WSW3.7 kmh WSW 3.5 mph5.6 kmh 29.63 in1003.4 mb - 0.00 in0.0 mm 0.00 in0.0 mm
09:30 AM 32.6°F0.3°C 19.8°F-6.8°C 59% 2.3 mph WSW3.7 kmh WSW 3.5 mph5.6 kmh 29.62 in1003.0 mb - 0.00 in0.0 mm 0.00 in0.0 mm
09:35 AM 32.9°F0.5°C 19.7°F-6.8°C 58% 3.5 mph W5.6 kmh W 3.5 mph5.6 kmh 29.62 in1003.0 mb - 0.00 in0.0 mm 0.00 in0.0 mm
09:40 AM 33.3°F0.7°C 20.5°F-6.4°C 59% 3.5 mph W5.6 kmh W 3.5 mph5.6 kmh 29.62 in1003.0 mb - 0.00 in0.0 mm 0.00 in0.0 mm
09:45 AM 33.1°F0.6°C 19.9°F-6.7°C 58% 2.3 mph NW3.7 kmh NW 3.5 mph5.6 kmh 29.64 in1003.7 mb - 0.00 in0.0 mm 0.00 in0.0 mm
09:50 AM 33.4°F0.8°C 20.2°F-6.6°C 58% 3.5 mph WSW5.6 kmh WSW 4.6 mph7.4 kmh 29.64 in1003.7 mb - 0.00 in0.0 mm 0.00 in0.0 mm
09:55 AM 33.8°F1.0°C 20.2°F-6.6°C 57% 3.5 mph W5.6 kmh W 3.5 mph5.6 kmh 29.64 in1003.7 mb - 0.00 in0.0 mm 0.00 in0.0 mm
10:00 AM 34.0°F1.1°C 19.9°F-6.7°C 56% 3.5 mph WSW5.6 kmh WSW 6.9 mph11.1 kmh 29.64 in1003.7 mb - 0.00 in0.0 mm 0.00 in0.0 mm
10:10 AM 34.3°F1.3°C 19.8°F-6.8°C 55% 5.8 mph NW9.3 kmh NW 6.9 mph11.1 kmh 29.64 in1003.7 mb - 0.00 in0.0 mm 0.00 in0.0 mm
10:15 AM 34.9°F1.6°C 20.7°F-6.3°C 56% 5.8 mph W9.3 kmh W 4.6 mph7.4 kmh 29.66 in1004.4 mb - 0.00 in0.0 mm 0.00 in0.0 mm
10:20 AM 34.4°F1.3°C 19.8°F-6.8°C 55% 5.8 mph WSW9.3 kmh WSW 6.9 mph11.1 kmh 29.66 in1004.4 mb - 0.00 in0.0 mm 0.00 in0.0 mm
10:25 AM 34.0°F1.1°C 19.9°F-6.7°C 56% 5.8 mph WNW9.3 kmh WNW 8.1 mph13.0 kmh 29.66 in1004.4 mb - 0.00 in0.0 mm 0.00 in0.0 mm
10:30 AM 34.2°F1.2°C 20.1°F-6.6°C 56% 3.5 mph WSW5.6 kmh WSW 3.5 mph5.6 kmh 29.64 in1003.7 mb - 0.00 in0.0 mm 0.00 in0.0 mm
10:35 AM 34.2°F1.2°C 20.1°F-6.6°C 56% 4.6 mph NW7.4 kmh NW 5.8 mph9.3 kmh 29.64 in1003.7 mb - 0.00 in0.0 mm 0.00 in0.0 mm
10:40 AM 34.9°F1.6°C 20.8°F-6.2°C 56% 5.8 mph WNW9.3 kmh WNW 6.9 mph11.1 kmh 29.64 in1003.7 mb - 0.00 in0.0 mm 0.00 in0.0 mm
10:45 AM 35.2°F1.8°C 20.7°F-6.3°C 55% 5.8 mph WNW9.3 kmh WNW 4.6 mph7.4 kmh 29.64 in1003.7 mb - 0.00 in0.0 mm 0.00 in0.0 mm
10:50 AM 36.0°F2.2°C 21.3°F-5.9°C 55% 5.8 mph W9.3 kmh W 8.1 mph13.0 kmh 29.64 in1003.7 mb - 0.00 in0.0 mm 0.00 in0.0 mm
10:55 AM 36.3°F2.4°C 21.7°F-5.7°C 55% 6.9 mph WNW11.1 kmh WNW 8.1 mph13.0 kmh 29.64 in1003.7 mb - 0.00 in0.0 mm 0.00 in0.0 mm
11:00 AM 36.0°F2.2°C 21.3°F-5.9°C 55% 8.1 mph NW13.0 kmh NW 10.4 mph16.7 kmh 29.64 in1003.7 mb - 0.00 in0.0 mm 0.00 in0.0 mm
11:10 AM 35.6°F2.0°C 20.6°F-6.3°C 54% 8.1 mph NW13.0 kmh NW 12.7 mph20.4 kmh 29.64 in1003.7 mb - 0.00 in0.0 mm 0.00 in0.0 mm
11:15 AM 35.8°F2.1°C 20.7°F-6.3°C 54% 9.2 mph NW14.8 kmh NW 12.7 mph20.4 kmh 29.63 in1003.4 mb - 0.00 in0.0 mm 0.00 in0.0 mm
11:20 AM 36.0°F2.2°C 20.9°F-6.2°C 54% 9.2 mph WNW14.8 kmh WNW 10.4 mph16.7 kmh 29.63 in1003.4 mb - 0.00 in0.0 mm 0.00 in0.0 mm
11:25 AM 36.0°F2.2°C 20.9°F-6.2°C 54% 5.8 mph NW9.3 kmh NW 8.1 mph13.0 kmh 29.63 in1003.4 mb - 0.00 in0.0 mm 0.00 in0.0 mm
11:30 AM 36.0°F2.2°C 21.3°F-5.9°C 55% 9.2 mph WNW14.8 kmh WNW 10.4 mph16.7 kmh 29.63 in1003.4 mb - 0.00 in0.0 mm 0.00 in0.0 mm
11:35 AM 36.1°F2.3°C 21.5°F-5.8°C 55% 6.9 mph NW11.1 kmh NW 9.2 mph14.8 kmh 29.63 in1003.4 mb - 0.00 in0.0 mm 0.00 in0.0 mm
11:40 AM 36.1°F2.3°C 21.5°F-5.8°C 55% 6.9 mph NW11.1 kmh NW 9.2 mph14.8 kmh 29.63 in1003.4 mb - 0.00 in0.0 mm 0.00 in0.0 mm
11:45 AM 36.1°F2.3°C 21.5°F-5.8°C 55% 9.2 mph WNW14.8 kmh WNW 11.5 mph18.5 kmh 29.63 in1003.4 mb - 0.00 in0.0 mm 0.00 in0.0 mm
11:50 AM 36.1°F2.3°C 21.4°F-5.9°C 55% 6.9 mph WNW11.1 kmh WNW 9.2 mph14.8 kmh 29.63 in1003.4 mb - 0.00 in0.0 mm 0.00 in0.0 mm
11:55 AM 36.3°F2.4°C 21.7°F-5.7°C 55% 5.8 mph WNW9.3 kmh WNW 11.5 mph18.5 kmh 29.63 in1003.4 mb - 0.00 in0.0 mm 0.00 in0.0 mm
12:00 PM 36.3°F2.4°C 21.7°F-5.7°C 55% 5.8 mph NW9.3 kmh NW 6.9 mph11.1 kmh 29.63 in1003.4 mb - 0.00 in0.0 mm 0.00 in0.0 mm
12:10 PM 36.0°F2.2°C 21.8°F-5.7°C 56% 6.9 mph W11.1 kmh W 6.9 mph11.1 kmh 29.63 in1003.4 mb - 0.00 in0.0 mm 0.00 in0.0 mm
12:15 PM 36.2°F2.3°C 22.0°F-5.6°C 56% 5.8 mph W9.3 kmh W 9.2 mph14.8 kmh 29.62 in1003.0 mb - 0.00 in0.0 mm 0.00 in0.0 mm
12:20 PM 36.3°F2.4°C 22.5°F-5.3°C 57% 5.8 mph NW9.3 kmh NW 8.1 mph13.0 kmh 29.62 in1003.0 mb - 0.00 in0.0 mm 0.00 in0.0 mm
12:25 PM 36.5°F2.5°C 22.7°F-5.2°C 57% 9.2 mph NW14.8 kmh NW 12.7 mph20.4 kmh 29.62 in1003.0 mb - 0.00 in0.0 mm 0.00 in0.0 mm
12:30 PM 36.5°F2.5°C 23.1°F-4.9°C 58% 5.8 mph NW9.3 kmh NW 6.9 mph11.1 kmh 29.62 in1003.0 mb - 0.00 in0.0 mm 0.00 in0.0 mm
12:35 PM 36.5°F2.5°C 23.5°F-4.7°C 59% 8.1 mph WNW13.0 kmh WNW 9.2 mph14.8 kmh 29.62 in1003.0 mb - 0.00 in0.0 mm 0.00 in0.0 mm
12:40 PM 36.7°F2.6°C 24.1°F-4.4°C 60% 5.8 mph W9.3 kmh W 9.2 mph14.8 kmh 29.62 in1003.0 mb - 0.00 in0.0 mm 0.00 in0.0 mm
12:45 PM 36.7°F2.6°C 24.1°F-4.4°C 60% 9.2 mph NNW14.8 kmh NNW 11.5 mph18.5 kmh 29.62 in1003.0 mb - 0.00 in0.0 mm 0.00 in0.0 mm
12:50 PM 36.6°F2.6°C 24.0°F-4.4°C 60% 6.9 mph WNW11.1 kmh WNW 6.9 mph11.1 kmh 29.62 in1003.0 mb - 0.00 in0.0 mm 0.00 in0.0 mm
12:55 PM 36.7°F2.6°C 24.1°F-4.4°C 60% 4.6 mph NW7.4 kmh NW 6.9 mph11.1 kmh 29.62 in1003.0 mb - 0.00 in0.0 mm 0.00 in0.0 mm
01:00 PM 36.7°F2.6°C 23.7°F-4.6°C 59% 8.1 mph NNW13.0 kmh NNW 13.8 mph22.2 kmh 29.62 in1003.0 mb - 0.00 in0.0 mm 0.00 in0.0 mm
01:10 PM 36.7°F2.6°C 23.7°F-4.6°C 59% 5.8 mph WNW9.3 kmh WNW 5.8 mph9.3 kmh 29.62 in1003.0 mb - 0.00 in0.0 mm 0.00 in0.0 mm
01:15 PM 36.9°F2.7°C 23.9°F-4.5°C 59% 9.2 mph WNW14.8 kmh WNW 11.5 mph18.5 kmh 29.62 in1003.0 mb - 0.00 in0.0 mm 0.00 in0.0 mm
01:20 PM 36.7°F2.6°C 23.3°F-4.8°C 58% 9.2 mph NW14.8 kmh NW 9.2 mph14.8 kmh 29.62 in1003.0 mb - 0.00 in0.0 mm 0.00 in0.0 mm
01:25 PM 36.9°F2.7°C 23.5°F-4.7°C 58% 15.0 mph NNW24.1 kmh NNW 18.4 mph29.6 kmh 29.62 in1003.0 mb - 0.00 in0.0 mm 0.00 in0.0 mm
01:30 PM 37.0°F2.8°C 23.2°F-4.9°C 57% 11.5 mph N18.5 kmh N 11.5 mph18.5 kmh 29.62 in1003.0 mb - 0.00 in0.0 mm 0.00 in0.0 mm
01:35 PM 37.2°F2.9°C 23.4°F-4.8°C 57% 9.2 mph NW14.8 kmh NW 12.7 mph20.4 kmh 29.62 in1003.0 mb - 0.00 in0.0 mm 0.00 in0.0 mm
01:40 PM 37.6°F3.1°C 23.3°F-4.8°C 56% 11.5 mph NNW18.5 kmh NNW 12.7 mph20.4 kmh 29.62 in1003.0 mb - 0.00 in0.0 mm 0.00 in0.0 mm
01:45 PM 37.9°F3.3°C 23.6°F-4.7°C 56% 10.4 mph NW16.7 kmh NW 12.7 mph20.4 kmh 29.62 in1003.0 mb - 0.00 in0.0 mm 0.00 in0.0 mm
01:50 PM 38.2°F3.4°C 23.9°F-4.5°C 56% 8.1 mph W13.0 kmh W 8.1 mph13.0 kmh 29.62 in1003.0 mb - 0.00 in0.0 mm 0.00 in0.0 mm
01:55 PM 37.9°F3.3°C 23.6°F-4.7°C 56% 10.4 mph NNW16.7 kmh NNW 15.0 mph24.1 kmh 29.62 in1003.0 mb - 0.00 in0.0 mm 0.00 in0.0 mm
02:00 PM 38.1°F3.4°C 23.8°F-4.6°C 56% 9.2 mph NW14.8 kmh NW 6.9 mph11.1 kmh 29.62 in1003.0 mb - 0.00 in0.0 mm 0.00 in0.0 mm
02:10 PM 38.3°F3.5°C 24.0°F-4.4°C 56% 10.4 mph WNW16.7 kmh WNW 16.1 mph25.9 kmh 29.62 in1003.0 mb - 0.00 in0.0 mm 0.00 in0.0 mm
02:15 PM 37.8°F3.2°C 23.5°F-4.7°C 56% 10.4 mph NW16.7 kmh NW 12.7 mph20.4 kmh 29.62 in1003.0 mb - 0.00 in0.0 mm 0.00 in0.0 mm
02:20 PM 37.6°F3.1°C 23.3°F-4.8°C 56% 9.2 mph NW14.8 kmh NW 11.5 mph18.5 kmh 29.62 in1003.0 mb - 0.00 in0.0 mm 0.00 in0.0 mm
02:25 PM 37.4°F3.0°C 23.5°F-4.7°C 57% 9.2 mph NNW14.8 kmh NNW 11.5 mph18.5 kmh 29.62 in1003.0 mb - 0.00 in0.0 mm 0.00 in0.0 mm
02:30 PM 37.4°F3.0°C 23.5°F-4.7°C 57% 11.5 mph NNW18.5 kmh NNW 11.5 mph18.5 kmh 29.62 in1003.0 mb - 0.00 in0.0 mm 0.00 in0.0 mm
02:35 PM 37.2°F2.9°C 23.8°F-4.6°C 58% 10.4 mph NW16.7 kmh NW 9.2 mph14.8 kmh 29.62 in1003.0 mb - 0.00 in0.0 mm 0.00 in0.0 mm
02:40 PM 37.0°F2.8°C 23.6°F-4.7°C 58% 9.2 mph NNW14.8 kmh NNW 13.8 mph22.2 kmh 29.62 in1003.0 mb - 0.00 in0.0 mm 0.00 in0.0 mm
02:45 PM 36.9°F2.7°C 23.9°F-4.5°C 59% 6.9 mph WNW11.1 kmh WNW 9.2 mph14.8 kmh 29.63 in1003.4 mb - 0.00 in0.0 mm 0.00 in0.0 mm
02:50 PM 36.9°F2.7°C 23.9°F-4.5°C 59% 3.5 mph NNW5.6 kmh NNW 5.8 mph9.3 kmh 29.63 in1003.4 mb - 0.00 in0.0 mm 0.00 in0.0 mm
02:55 PM 36.9°F2.7°C 23.9°F-4.5°C 59% 6.9 mph NW11.1 kmh NW 10.4 mph16.7 kmh 29.63 in1003.4 mb - 0.00 in0.0 mm 0.00 in0.0 mm
03:00 PM 37.2°F2.9°C 24.2°F-4.3°C 59% 6.9 mph NW11.1 kmh NW 6.9 mph11.1 kmh 29.62 in1003.0 mb - 0.00 in0.0 mm 0.00 in0.0 mm
03:10 PM 37.6°F3.1°C 24.1°F-4.4°C 58% 3.5 mph NW5.6 kmh NW 6.9 mph11.1 kmh 29.62 in1003.0 mb - 0.00 in0.0 mm 0.00 in0.0 mm
03:15 PM 37.6°F3.1°C 24.1°F-4.4°C 58% 5.8 mph NW9.3 kmh NW 9.2 mph14.8 kmh 29.62 in1003.0 mb - 0.00 in0.0 mm 0.00 in0.0 mm
03:20 PM 37.6°F3.1°C 24.1°F-4.4°C 58% 8.1 mph NNW13.0 kmh NNW 10.4 mph16.7 kmh 29.62 in1003.0 mb - 0.00 in0.0 mm 0.00 in0.0 mm
03:25 PM 37.6°F3.1°C 24.1°F-4.4°C 58% 8.1 mph NNW13.0 kmh NNW 6.9 mph11.1 kmh 29.62 in1003.0 mb - 0.00 in0.0 mm 0.00 in0.0 mm
03:30 PM 37.4°F3.0°C 24.0°F-4.4°C 58% 6.9 mph NW11.1 kmh NW 11.5 mph18.5 kmh 29.62 in1003.0 mb - 0.00 in0.0 mm 0.00 in0.0 mm
03:35 PM 37.4°F3.0°C 24.0°F-4.4°C 58% 5.8 mph NNW9.3 kmh NNW 5.8 mph9.3 kmh 29.62 in1003.0 mb - 0.00 in0.0 mm 0.00 in0.0 mm
03:40 PM 37.4°F3.0°C 24.0°F-4.4°C 58% 5.8 mph NW9.3 kmh NW 8.1 mph13.0 kmh 29.62 in1003.0 mb - 0.00 in0.0 mm 0.00 in0.0 mm
03:45 PM 37.2°F2.9°C 24.2°F-4.3°C 59% 4.6 mph NNW7.4 kmh NNW 4.6 mph7.4 kmh 29.62 in1003.0 mb - 0.00 in0.0 mm 0.00 in0.0 mm
03:50 PM 37.2°F2.9°C 24.2°F-4.3°C 59% 6.9 mph NNW11.1 kmh NNW 9.2 mph14.8 kmh 29.62 in1003.0 mb - 0.00 in0.0 mm 0.00 in0.0 mm
03:55 PM 37.0°F2.8°C 24.0°F-4.4°C 59% 4.6 mph NW7.4 kmh NW 5.8 mph9.3 kmh 29.62 in1003.0 mb - 0.00 in0.0 mm 0.00 in0.0 mm
04:00 PM 36.7°F2.6°C 23.7°F-4.6°C 59% 3.5 mph NW5.6 kmh NW 4.6 mph7.4 kmh 29.62 in1003.0 mb - 0.00 in0.0 mm 0.00 in0.0 mm
04:10 PM 36.0°F2.2°C 23.4°F-4.8°C 60% 3.5 mph WNW5.6 kmh WNW 4.6 mph7.4 kmh 29.62 in1003.0 mb - 0.00 in0.0 mm 0.00 in0.0 mm
04:15 PM 35.8°F2.1°C 23.2°F-4.9°C 60% 2.3 mph WNW3.7 kmh WNW 2.3 mph3.7 kmh 29.61 in1002.7 mb - 0.00 in0.0 mm 0.00 in0.0 mm
04:20 PM 35.6°F2.0°C 23.0°F-5.0°C 60% Calm Calm 1.2 mph1.9 kmh 29.61 in1002.7 mb - 0.00 in0.0 mm 0.00 in0.0 mm
04:25 PM 35.2°F1.8°C 22.7°F-5.2°C 60% 2.3 mph SW3.7 kmh SW 2.3 mph3.7 kmh 29.61 in1002.7 mb - 0.00 in0.0 mm 0.00 in0.0 mm
04:30 PM 34.9°F1.6°C 22.4°F-5.3°C 60% 2.3 mph SSW3.7 kmh SSW 3.5 mph5.6 kmh 29.62 in1003.0 mb - 0.00 in0.0 mm 0.00 in0.0 mm
04:35 PM 34.3°F1.3°C 22.3°F-5.4°C 61% 3.5 mph WSW5.6 kmh WSW 3.5 mph5.6 kmh 29.62 in1003.0 mb - 0.00 in0.0 mm 0.00 in0.0 mm
04:40 PM 34.0°F1.1°C 22.3°F-5.4°C 62% 3.5 mph SW5.6 kmh SW 3.5 mph5.6 kmh 29.62 in1003.0 mb - 0.00 in0.0 mm 0.00 in0.0 mm
04:45 PM 33.5°F0.8°C 22.3°F-5.4°C 63% 3.5 mph SW5.6 kmh SW 4.6 mph7.4 kmh 29.62 in1003.0 mb - 0.00 in0.0 mm 0.00 in0.0 mm
04:50 PM 33.3°F0.7°C 22.0°F-5.6°C 63% 3.5 mph SSW5.6 kmh SSW 3.5 mph5.6 kmh 29.62 in1003.0 mb - 0.00 in0.0 mm 0.00 in0.0 mm
04:55 PM 32.9°F0.5°C 22.0°F-5.6°C 64% 4.6 mph SSW7.4 kmh SSW 4.6 mph7.4 kmh 29.62 in1003.0 mb - 0.00 in0.0 mm 0.00 in0.0 mm
05:00 PM 32.7°F0.4°C 22.2°F-5.4°C 65% 4.6 mph SSW7.4 kmh SSW 4.6 mph7.4 kmh 29.61 in1002.7 mb - 0.00 in0.0 mm 0.00 in0.0 mm
05:10 PM 32.5°F0.3°C 22.8°F-5.1°C 67% 3.5 mph WSW5.6 kmh WSW 4.6 mph7.4 kmh 29.61 in1002.7 mb - 0.00 in0.0 mm 0.00 in0.0 mm
05:15 PM 32.5°F0.3°C 22.8°F-5.1°C 67% 4.6 mph SSW7.4 kmh SSW 5.8 mph9.3 kmh 29.61 in1002.7 mb - 0.00 in0.0 mm 0.00 in0.0 mm
05:20 PM 32.4°F0.2°C 22.6°F-5.2°C 67% 3.5 mph WSW5.6 kmh WSW 4.6 mph7.4 kmh 29.61 in1002.7 mb - 0.00 in0.0 mm 0.00 in0.0 mm
05:25 PM 32.4°F0.2°C 22.6°F-5.2°C 67% 2.3 mph WNW3.7 kmh WNW 2.3 mph3.7 kmh 29.61 in1002.7 mb - 0.00 in0.0 mm 0.00 in0.0 mm
05:30 PM 32.0°F0.0°C 22.3°F-5.4°C 67% 1.2 mph WSW1.9 kmh WSW 3.5 mph5.6 kmh 29.63 in1003.4 mb - 0.00 in0.0 mm 0.00 in0.0 mm
05:35 PM 32.0°F0.0°C 22.3°F-5.4°C 67% 2.3 mph WSW3.7 kmh WSW 3.5 mph5.6 kmh 29.63 in1003.4 mb - 0.00 in0.0 mm 0.00 in0.0 mm
05:40 PM 32.0°F0.0°C 22.3°F-5.4°C 67% 1.2 mph WNW1.9 kmh WNW 2.3 mph3.7 kmh 29.63 in1003.4 mb - 0.00 in0.0 mm 0.00 in0.0 mm
05:45 PM 32.0°F0.0°C 22.3°F-5.4°C 67% 2.3 mph SW3.7 kmh SW 3.5 mph5.6 kmh 29.63 in1003.4 mb - 0.00 in0.0 mm 0.00 in0.0 mm
05:50 PM 31.8°F-0.1°C 22.5°F-5.3°C 68% 2.3 mph SW3.7 kmh SW 3.5 mph5.6 kmh 29.63 in1003.4 mb - 0.00 in0.0 mm 0.00 in0.0 mm
05:55 PM 31.8°F-0.1°C 22.1°F-5.5°C 67% 2.3 mph WNW3.7 kmh WNW 3.5 mph5.6 kmh 29.63 in1003.4 mb - 0.00 in0.0 mm 0.00 in0.0 mm
06:00 PM 31.8°F-0.1°C 22.5°F-5.3°C 68% 1.2 mph W1.9 kmh W 2.3 mph3.7 kmh 29.63 in1003.4 mb - 0.00 in0.0 mm 0.00 in0.0 mm
06:10 PM 31.5°F-0.3°C 22.1°F-5.5°C 68% 2.3 mph WSW3.7 kmh WSW 3.5 mph5.6 kmh 29.63 in1003.4 mb - 0.00 in0.0 mm 0.00 in0.0 mm
06:15 PM 31.5°F-0.3°C 22.1°F-5.5°C 68% 2.3 mph SW3.7 kmh SW 2.3 mph3.7 kmh 29.63 in1003.4 mb - 0.00 in0.0 mm 0.00 in0.0 mm
06:20 PM 31.5°F-0.3°C 22.1°F-5.5°C 68% 2.3 mph SW3.7 kmh SW 2.3 mph3.7 kmh 29.63 in1003.4 mb - 0.00 in0.0 mm 0.00 in0.0 mm
06:25 PM 31.3°F-0.4°C 21.9°F-5.6°C 68% 3.5 mph W5.6 kmh W 3.5 mph5.6 kmh 29.63 in1003.4 mb - 0.00 in0.0 mm 0.00 in0.0 mm
06:30 PM 31.6°F-0.2°C 22.3°F-5.4°C 68% 3.5 mph SW5.6 kmh SW 3.5 mph5.6 kmh 29.64 in1003.7 mb - 0.00 in0.0 mm 0.00 in0.0 mm
06:35 PM 32.0°F0.0°C 22.6°F-5.2°C 68% 3.5 mph W5.6 kmh W 4.6 mph7.4 kmh 29.64 in1003.7 mb - 0.00 in0.0 mm 0.00 in0.0 mm
06:40 PM 32.5°F0.3°C 22.7°F-5.2°C 67% 3.5 mph WSW5.6 kmh WSW 5.8 mph9.3 kmh 29.64 in1003.7 mb - 0.00 in0.0 mm 0.00 in0.0 mm
06:45 PM 33.1°F0.6°C 23.0°F-5.0°C 66% 4.6 mph WSW7.4 kmh WSW 4.6 mph7.4 kmh 29.64 in1003.7 mb - 0.00 in0.0 mm 0.00 in0.0 mm
06:50 PM 33.4°F0.8°C 22.9°F-5.1°C 65% 3.5 mph SSW5.6 kmh SSW 3.5 mph5.6 kmh 29.64 in1003.7 mb - 0.00 in0.0 mm 0.00 in0.0 mm
06:55 PM 33.6°F0.9°C 23.1°F-4.9°C 65% 3.5 mph W5.6 kmh W 3.5 mph5.6 kmh 29.64 in1003.7 mb - 0.00 in0.0 mm 0.00 in0.0 mm
07:00 PM 33.6°F0.9°C 23.1°F-4.9°C 65% 4.6 mph SW7.4 kmh SW 5.8 mph9.3 kmh 29.64 in1003.7 mb - 0.00 in0.0 mm 0.00 in0.0 mm
07:10 PM 33.8°F1.0°C 23.3°F-4.8°C 65% 3.5 mph SW5.6 kmh SW 3.5 mph5.6 kmh 29.64 in1003.7 mb - 0.00 in0.0 mm 0.00 in0.0 mm
07:15 PM 33.8°F1.0°C 23.3°F-4.8°C 65% 3.5 mph W5.6 kmh W 4.6 mph7.4 kmh 29.64 in1003.7 mb - 0.00 in0.0 mm 0.00 in0.0 mm
07:20 PM 34.0°F1.1°C 23.4°F-4.8°C 65% 3.5 mph WSW5.6 kmh WSW 3.5 mph5.6 kmh 29.64 in1003.7 mb - 0.00 in0.0 mm 0.00 in0.0 mm
07:25 PM 34.0°F1.1°C 23.1°F-4.9°C 64% 3.5 mph WSW5.6 kmh WSW 3.5 mph5.6 kmh 29.64 in1003.7 mb - 0.00 in0.0 mm 0.00 in0.0 mm
07:30 PM 34.0°F1.1°C 23.1°F-4.9°C 64% 3.5 mph WSW5.6 kmh WSW 3.5 mph5.6 kmh 29.63 in1003.4 mb - 0.00 in0.0 mm 0.00 in0.0 mm
07:35 PM 34.2°F1.2°C 23.2°F-4.9°C 64% 3.5 mph WSW5.6 kmh WSW 3.5 mph5.6 kmh 29.63 in1003.4 mb - 0.00 in0.0 mm 0.00 in0.0 mm
07:40 PM 34.2°F1.2°C 23.2°F-4.9°C 64% 3.5 mph WNW5.6 kmh WNW 4.6 mph7.4 kmh 29.63 in1003.4 mb - 0.00 in0.0 mm 0.00 in0.0 mm
07:45 PM 34.4°F1.3°C 23.5°F-4.7°C 64% 3.5 mph NW5.6 kmh NW 4.6 mph7.4 kmh 29.63 in1003.4 mb - 0.00 in0.0 mm 0.00 in0.0 mm
07:50 PM 34.7°F1.5°C 23.4°F-4.8°C 63% 4.6 mph W7.4 kmh W 8.1 mph13.0 kmh 29.63 in1003.4 mb - 0.00 in0.0 mm 0.00 in0.0 mm
07:55 PM 35.2°F1.8°C 23.9°F-4.5°C 63% 4.6 mph W7.4 kmh W 4.6 mph7.4 kmh 29.63 in1003.4 mb - 0.00 in0.0 mm 0.00 in0.0 mm
08:00 PM 35.4°F1.9°C 23.7°F-4.6°C 62% 5.8 mph WNW9.3 kmh WNW 8.1 mph13.0 kmh 29.63 in1003.4 mb - 0.00 in0.0 mm 0.00 in0.0 mm
08:10 PM 36.1°F2.3°C 23.6°F-4.7°C 60% 4.6 mph W7.4 kmh W 5.8 mph9.3 kmh 29.63 in1003.4 mb - 0.00 in0.0 mm 0.00 in0.0 mm
08:15 PM 36.2°F2.3°C 23.6°F-4.7°C 60% 5.8 mph SSW9.3 kmh SSW 8.1 mph13.0 kmh 29.63 in1003.4 mb - 0.00 in0.0 mm 0.00 in0.0 mm
08:20 PM 36.1°F2.3°C 23.6°F-4.7°C 60% 4.6 mph WNW7.4 kmh WNW 6.9 mph11.1 kmh 29.63 in1003.4 mb - 0.00 in0.0 mm 0.00 in0.0 mm
08:25 PM 36.5°F2.5°C 23.5°F-4.7°C 59% 5.8 mph WSW9.3 kmh WSW 6.9 mph11.1 kmh 29.63 in1003.4 mb - 0.00 in0.0 mm 0.00 in0.0 mm
08:30 PM 36.5°F2.5°C 23.5°F-4.7°C 59% 4.6 mph WNW7.4 kmh WNW 3.5 mph5.6 kmh 29.63 in1003.4 mb - 0.00 in0.0 mm 0.00 in0.0 mm
08:35 PM 36.5°F2.5°C 23.5°F-4.7°C 59% 4.6 mph W7.4 kmh W 4.6 mph7.4 kmh 29.63 in1003.4 mb - 0.00 in0.0 mm 0.00 in0.0 mm
08:40 PM 36.5°F2.5°C 23.5°F-4.7°C 59% 5.8 mph NW9.3 kmh NW 8.1 mph13.0 kmh 29.63 in1003.4 mb - 0.00 in0.0 mm 0.00 in0.0 mm
08:45 PM 36.5°F2.5°C 23.5°F-4.7°C 59% 5.8 mph SW9.3 kmh SW 11.5 mph18.5 kmh 29.64 in1003.7 mb - 0.00 in0.0 mm 0.00 in0.0 mm
08:50 PM 36.7°F2.6°C 23.3°F-4.8°C 58% 5.8 mph WSW9.3 kmh WSW 10.4 mph16.7 kmh 29.64 in1003.7 mb - 0.00 in0.0 mm 0.00 in0.0 mm
08:55 PM 36.9°F2.7°C 23.4°F-4.8°C 58% 6.9 mph NW11.1 kmh NW 8.1 mph13.0 kmh 29.64 in1003.7 mb - 0.00 in0.0 mm 0.00 in0.0 mm
09:00 PM 36.7°F2.6°C 23.3°F-4.8°C 58% 4.6 mph WSW7.4 kmh WSW 6.9 mph11.1 kmh 29.64 in1003.7 mb - 0.00 in0.0 mm 0.00 in0.0 mm
09:10 PM 36.7°F2.6°C 23.3°F-4.8°C 58% 6.9 mph W11.1 kmh W 6.9 mph11.1 kmh 29.64 in1003.7 mb - 0.00 in0.0 mm 0.00 in0.0 mm
09:15 PM 36.6°F2.6°C 23.2°F-4.9°C 58% 4.6 mph W7.4 kmh W 5.8 mph9.3 kmh 29.64 in1003.7 mb - 0.00 in0.0 mm 0.00 in0.0 mm
09:20 PM 36.5°F2.5°C 23.5°F-4.7°C 59% 4.6 mph WSW7.4 kmh WSW 6.9 mph11.1 kmh 29.64 in1003.7 mb - 0.00 in0.0 mm 0.00 in0.0 mm
09:25 PM 36.3°F2.4°C 23.3°F-4.8°C 59% 4.6 mph WSW7.4 kmh WSW 8.1 mph13.0 kmh 29.64 in1003.7 mb - 0.00 in0.0 mm 0.00 in0.0 mm
09:30 PM 36.3°F2.4°C 23.3°F-4.8°C 59% 4.6 mph SW7.4 kmh SW 6.9 mph11.1 kmh 29.64 in1003.7 mb - 0.00 in0.0 mm 0.00 in0.0 mm
09:35 PM 36.3°F2.4°C 23.3°F-4.8°C 59% 4.6 mph SW7.4 kmh SW 4.6 mph7.4 kmh 29.64 in1003.7 mb - 0.00 in0.0 mm 0.00 in0.0 mm
09:40 PM 36.3°F2.4°C 23.3°F-4.8°C 59% 4.6 mph NNW7.4 kmh NNW 6.9 mph11.1 kmh 29.64 in1003.7 mb - 0.00 in0.0 mm 0.00 in0.0 mm
09:45 PM 36.3°F2.4°C 22.9°F-5.1°C 58% 5.8 mph WNW9.3 kmh WNW 8.1 mph13.0 kmh 29.64 in1003.7 mb - 0.00 in0.0 mm 0.00 in0.0 mm
09:50 PM 36.3°F2.4°C 22.9°F-5.1°C 58% 3.5 mph WSW5.6 kmh WSW 6.9 mph11.1 kmh 29.64 in1003.7 mb - 0.00 in0.0 mm 0.00 in0.0 mm
09:55 PM 36.1°F2.3°C 22.8°F-5.1°C 58% 4.6 mph SW7.4 kmh SW 3.5 mph5.6 kmh 29.64 in1003.7 mb - 0.00 in0.0 mm 0.00 in0.0 mm
10:00 PM 36.1°F2.3°C 23.2°F-4.9°C 59% 3.5 mph SW5.6 kmh SW 4.6 mph7.4 kmh 29.64 in1003.7 mb - 0.00 in0.0 mm 0.00 in0.0 mm
10:10 PM 36.1°F2.3°C 22.8°F-5.1°C 58% 3.5 mph WSW5.6 kmh WSW 3.5 mph5.6 kmh 29.64 in1003.7 mb - 0.00 in0.0 mm 0.00 in0.0 mm
10:15 PM 36.1°F2.3°C 22.8°F-5.1°C 58% 4.6 mph WNW7.4 kmh WNW 6.9 mph11.1 kmh 29.64 in1003.7 mb - 0.00 in0.0 mm 0.00 in0.0 mm
10:20 PM 36.1°F2.3°C 22.8°F-5.1°C 58% 4.6 mph NNW7.4 kmh NNW 3.5 mph5.6 kmh 29.64 in1003.7 mb - 0.00 in0.0 mm 0.00 in0.0 mm
10:25 PM 36.1°F2.3°C 22.8°F-5.1°C 58% 5.8 mph WNW9.3 kmh WNW 8.1 mph13.0 kmh 29.64 in1003.7 mb - 0.00 in0.0 mm 0.00 in0.0 mm
10:30 PM 36.1°F2.3°C 22.8°F-5.1°C 58% 4.6 mph WNW7.4 kmh WNW 5.8 mph9.3 kmh 29.64 in1003.7 mb - 0.00 in0.0 mm 0.00 in0.0 mm
10:35 PM 36.0°F2.2°C 22.6°F-5.2°C 58% 5.8 mph WNW9.3 kmh WNW 8.1 mph13.0 kmh 29.64 in1003.7 mb - 0.00 in0.0 mm 0.00 in0.0 mm
10:40 PM 36.0°F2.2°C 22.6°F-5.2°C 58% 5.8 mph NW9.3 kmh NW 5.8 mph9.3 kmh 29.64 in1003.7 mb - 0.00 in0.0 mm 0.00 in0.0 mm
10:45 PM 36.0°F2.2°C 22.6°F-5.2°C 58% 4.6 mph WNW7.4 kmh WNW 6.9 mph11.1 kmh 29.63 in1003.4 mb - 0.00 in0.0 mm 0.00 in0.0 mm
10:50 PM 36.0°F2.2°C 22.6°F-5.2°C 58% 4.6 mph SSW7.4 kmh SSW 5.8 mph9.3 kmh 29.63 in1003.4 mb - 0.00 in0.0 mm 0.00 in0.0 mm
10:55 PM 35.8°F2.1°C 22.4°F-5.3°C 58% 4.6 mph W7.4 kmh W 5.8 mph9.3 kmh 29.63 in1003.4 mb - 0.00 in0.0 mm 0.00 in0.0 mm
11:00 PM 35.8°F2.1°C 22.4°F-5.3°C 58% 4.6 mph NW7.4 kmh NW 6.9 mph11.1 kmh 29.62 in1003.0 mb - 0.00 in0.0 mm 0.00 in0.0 mm
11:10 PM 35.8°F2.1°C 22.4°F-5.3°C 58% 4.6 mph W7.4 kmh W 8.1 mph13.0 kmh 29.62 in1003.0 mb - 0.00 in0.0 mm 0.00 in0.0 mm
11:15 PM 35.8°F2.1°C 22.4°F-5.3°C 58% 4.6 mph WNW7.4 kmh WNW 5.8 mph9.3 kmh 29.62 in1003.0 mb - 0.00 in0.0 mm 0.00 in0.0 mm
11:20 PM 35.8°F2.1°C 22.4°F-5.3°C 58% 4.6 mph NNW7.4 kmh NNW 3.5 mph5.6 kmh 29.62 in1003.0 mb - 0.00 in0.0 mm 0.00 in0.0 mm
11:25 PM 35.8°F2.1°C 22.4°F-5.3°C 58% 5.8 mph W9.3 kmh W 6.9 mph11.1 kmh 29.62 in1003.0 mb - 0.00 in0.0 mm 0.00 in0.0 mm
11:30 PM 35.8°F2.1°C 22.4°F-5.3°C 58% 5.8 mph WSW9.3 kmh WSW 8.1 mph13.0 kmh 29.62 in1003.0 mb - 0.00 in0.0 mm 0.00 in0.0 mm
11:35 PM 36.0°F2.2°C 22.6°F-5.2°C 58% 4.6 mph WNW7.4 kmh WNW 8.1 mph13.0 kmh 29.62 in1003.0 mb - 0.00 in0.0 mm 0.00 in0.0 mm
11:40 PM 36.0°F2.2°C 22.6°F-5.2°C 58% 3.5 mph WNW5.6 kmh WNW 3.5 mph5.6 kmh 29.62 in1003.0 mb - 0.00 in0.0 mm 0.00 in0.0 mm
11:45 PM 36.0°F2.2°C 22.6°F-5.2°C 58% 3.5 mph WNW5.6 kmh WNW 3.5 mph5.6 kmh 29.62 in1003.0 mb - 0.00 in0.0 mm 0.00 in0.0 mm
11:50 PM 36.0°F2.2°C 22.6°F-5.2°C 58% 3.5 mph W5.6 kmh W 2.3 mph3.7 kmh 29.62 in1003.0 mb - 0.00 in0.0 mm 0.00 in0.0 mm
11:55 PM 35.8°F2.1°C 22.4°F-5.3°C 58% 4.6 mph SW7.4 kmh SW 4.6 mph7.4 kmh 29.62 in1003.0 mb - 0.00 in0.0 mm 0.00 in0.0 mm